Time;durP1;ratioP1;P1;durP2;ratioP2;P2;SDS_P1;SDS_P2;PMS_P1;PMS_P2;Temp;Humidity;BMP_temperature;BMP_pressure;BME280_temperature;BME280_humidity;BME280_pressure;Samples;Min_cycle;Max_cycle;Signal;HPM_P1;HPM_P2
2021/12/23 00:02:18;;;;;;;14.57;11.88;;;;;;;;;;6202576;23;20460;-42
2021/12/23 00:04:44;;;;;;;21.92;12.30;;;;;;;;;;6203907;23;20381;-43
2021/12/23 00:07:10;;;;;;;18.55;11.45;;;;;;;;;;6203100;23;20036;-43
2021/12/23 00:12:19;;;;;;;19.30;11.75;;;;;;;;;;6202955;23;20452;-45
2021/12/23 00:14:45;;;;;;;21.85;12.65;;;;;;;;;;6203275;23;20016;-44
2021/12/23 00:17:26;;;;;;;17.88;11.00;;;;;;;;;;6203338;23;20448;-43
2021/12/23 00:25:27;;;;;;;15.75;10.85;;;;;;;;;;6202957;23;20353;-45
2021/12/23 00:27:52;;;;;;;17.75;10.98;;;;;;;;;;6202693;23;20437;-42
2021/12/23 00:30:17;;;;;;;19.33;11.77;;;;;;;;;;6202962;23;20697;-43
2021/12/23 00:32:43;;;;;;;19.33;11.25;;;;;;;;;;6202840;23;20011;-43
2021/12/23 00:35:09;;;;;;;21.33;11.68;;;;;;;;;;6204930;23;20048;-43
2021/12/23 00:37:42;;;;;;;17.60;10.48;;;;;;;;;;6205574;23;20013;-44
2021/12/23 00:40:08;;;;;;;16.95;11.40;;;;;;;;;;6206469;23;20028;-45
2021/12/23 00:42:34;;;;;;;20.58;13.20;;;;;;;;;;6205113;23;20012;-42
2021/12/23 00:44:59;;;;;;;17.90;12.40;;;;;;;;;;6206684;23;20084;-42
2021/12/23 00:47:25;;;;;;;16.50;11.95;;;;;;;;;;6205686;23;20035;-44
2021/12/23 00:49:50;;;;;;;19.38;12.30;;;;;;;;;;6206600;23;20009;-43
2021/12/23 00:52:18;;;;;;;23.55;13.25;;;;;;;;;;6205391;23;20030;-42
2021/12/23 00:54:43;;;;;;;19.35;11.20;;;;;;;;;;6206349;23;20023;-42
2021/12/23 00:57:09;;;;;;;19.65;12.55;;;;;;;;;;6206099;23;20005;-42
2021/12/23 00:59:35;;;;;;;21.25;13.13;;;;;;;;;;6205970;23;20012;-43
2021/12/23 01:02:03;;;;;;;16.85;11.32;;;;;;;;;;6204889;23;20004;-43
2021/12/23 01:04:28;;;;;;;15.55;11.85;;;;;;;;;;6204462;23;20452;-45
2021/12/23 01:06:53;;;;;;;20.60;12.52;;;;;;;;;;6206318;23;20013;-43
2021/12/23 01:09:19;;;;;;;19.23;12.90;;;;;;;;;;6205394;23;20056;-45
2021/12/23 01:11:44;;;;;;;18.27;12.15;;;;;;;;;;6206234;23;20020;-44
2021/12/23 01:17:12;;;;;;;21.73;11.50;;;;;;;;;;6205378;23;20004;-45
2021/12/23 01:19:39;;;;;;;25.17;14.65;;;;;;;;;;6205766;23;20021;-46
2021/12/23 01:22:05;;;;;;;17.63;12.13;;;;;;;;;;6205969;23;20008;-45
2021/12/23 01:24:33;;;;;;;20.02;12.18;;;;;;;;;;6205373;23;20016;-43
2021/12/23 01:26:59;;;;;;;19.00;12.25;;;;;;;;;;6206359;23;20004;-44
2021/12/23 01:29:24;;;;;;;21.23;12.90;;;;;;;;;;6205927;23;20352;-44
2021/12/23 01:31:49;;;;;;;19.52;13.02;;;;;;;;;;6205742;23;20008;-43
2021/12/23 01:34:14;;;;;;;22.02;12.65;;;;;;;;;;6205605;23;20016;-43
2021/12/23 01:36:40;;;;;;;18.50;13.38;;;;;;;;;;6207751;23;20353;-42
2021/12/23 01:39:05;;;;;;;18.00;12.38;;;;;;;;;;6208214;23;20322;-42
2021/12/23 01:41:30;;;;;;;21.63;12.52;;;;;;;;;;6204593;23;20170;-43
2021/12/23 01:43:56;;;;;;;23.27;13.18;;;;;;;;;;6208571;23;20005;-42
2021/12/23 01:46:22;;;;;;;19.08;13.20;;;;;;;;;;6206994;23;20074;-43
2021/12/23 01:48:48;;;;;;;20.27;11.80;;;;;;;;;;6207647;23;20019;-43
2021/12/23 01:51:13;;;;;;;16.92;11.57;;;;;;;;;;6206432;23;20024;-42
2021/12/23 01:53:39;;;;;;;20.15;13.35;;;;;;;;;;6207949;23;20036;-43
2021/12/23 01:56:04;;;;;;;19.85;13.27;;;;;;;;;;6208211;23;20015;-43
2021/12/23 01:58:30;;;;;;;18.75;12.43;;;;;;;;;;6207131;23;20028;-43
2021/12/23 02:00:55;;;;;;;18.52;13.95;;;;;;;;;;6207369;23;20453;-43
2021/12/23 02:03:20;;;;;;;17.05;12.23;;;;;;;;;;6207172;23;20009;-43
2021/12/23 02:05:46;;;;;;;23.45;13.05;;;;;;;;;;6207602;23;20731;-44
2021/12/23 02:08:11;;;;;;;20.77;12.85;;;;;;;;;;6207803;23;20004;-44
2021/12/23 02:10:37;;;;;;;21.48;13.50;;;;;;;;;;6206429;23;20443;-43
2021/12/23 02:13:02;;;;;;;23.90;13.43;;;;;;;;;;6207464;23;20315;-42
2021/12/23 02:15:27;;;;;;;26.42;13.18;;;;;;;;;;6206874;23;20032;-44
2021/12/23 02:17:53;;;;;;;23.02;13.98;;;;;;;;;;6207130;23;20397;-42
2021/12/23 02:20:20;;;;;;;28.75;17.00;;;;;;;;;;6206979;23;20088;-43
2021/12/23 02:22:45;;;;;;;27.05;16.48;;;;;;;;;;6207066;23;20009;-42
2021/12/23 02:25:11;;;;;;;28.52;16.02;;;;;;;;;;6207357;23;20012;-43
2021/12/23 02:27:37;;;;;;;26.30;16.95;;;;;;;;;;6206404;23;20015;-46
2021/12/23 02:30:06;;;;;;;28.92;17.10;;;;;;;;;;6207818;23;20028;-45
2021/12/23 02:32:31;;;;;;;29.88;17.83;;;;;;;;;;6206296;23;20005;-44
2021/12/23 02:34:56;;;;;;;25.42;17.52;;;;;;;;;;6207557;23;20020;-43
2021/12/23 02:37:22;;;;;;;24.33;15.75;;;;;;;;;;6205901;23;20013;-43
2021/12/23 02:39:47;;;;;;;29.92;18.17;;;;;;;;;;6206965;23;20021;-43
2021/12/23 02:42:13;;;;;;;32.05;18.70;;;;;;;;;;6205875;23;20425;-44
2021/12/23 02:44:38;;;;;;;32.03;18.23;;;;;;;;;;6206759;23;20470;-43
2021/12/23 02:47:03;;;;;;;31.30;17.40;;;;;;;;;;6207320;23;20012;-42
2021/12/23 02:49:29;;;;;;;30.92;17.58;;;;;;;;;;6206358;23;20009;-43
2021/12/23 02:51:54;;;;;;;31.08;18.67;;;;;;;;;;6207528;23;20445;-45
2021/12/23 02:54:21;;;;;;;32.75;17.88;;;;;;;;;;6206131;23;20071;-43
2021/12/23 02:56:46;;;;;;;27.48;18.58;;;;;;;;;;6207046;23;20012;-44
2021/12/23 02:59:11;;;;;;;29.58;18.73;;;;;;;;;;6206827;23;20011;-44
2021/12/23 03:01:37;;;;;;;29.58;18.45;;;;;;;;;;6206772;23;20700;-44
2021/12/23 03:04:02;;;;;;;35.97;20.55;;;;;;;;;;6206749;23;20039;-46
2021/12/23 03:06:28;;;;;;;32.20;20.75;;;;;;;;;;6206483;23;20020;-43
2021/12/23 03:08:59;;;;;;;32.63;19.65;;;;;;;;;;6205966;23;20031;-44
2021/12/23 03:11:25;;;;;;;34.63;19.77;;;;;;;;;;6203710;23;20023;-43
2021/12/23 03:13:50;;;;;;;36.33;21.05;;;;;;;;;;6206544;23;20084;-42
2021/12/23 03:16:19;;;;;;;44.92;22.10;;;;;;;;;;6206775;23;20083;-44
2021/12/23 03:18:44;;;;;;;33.67;20.25;;;;;;;;;;6205568;23;20453;-43
2021/12/23 03:21:10;;;;;;;44.20;20.40;;;;;;;;;;6206636;23;20013;-45
2021/12/23 03:23:35;;;;;;;37.35;19.35;;;;;;;;;;6206604;23;20039;-42
2021/12/23 03:26:00;;;;;;;32.85;19.40;;;;;;;;;;6229937;23;20060;-43
2021/12/23 03:28:27;;;;;;;33.75;19.33;;;;;;;;;;6206700;23;20012;-43
2021/12/23 03:30:52;;;;;;;32.13;19.42;;;;;;;;;;6207098;23;20410;-47
2021/12/23 03:33:18;;;;;;;38.15;21.40;;;;;;;;;;6205960;23;20461;-42
2021/12/23 03:35:44;;;;;;;42.35;22.05;;;;;;;;;;6206737;23;20044;-42
2021/12/23 03:38:09;;;;;;;38.13;22.08;;;;;;;;;;6206309;23;20012;-43
2021/12/23 03:40:34;;;;;;;41.17;21.88;;;;;;;;;;6206315;23;20000;-43
2021/12/23 03:42:59;;;;;;;42.50;21.75;;;;;;;;;;6205970;23;20441;-44
2021/12/23 03:45:25;;;;;;;41.70;22.98;;;;;;;;;;6205931;23;20015;-42
2021/12/23 03:47:50;;;;;;;43.95;23.65;;;;;;;;;;6206677;23;20503;-43
2021/12/23 03:50:17;;;;;;;40.60;22.05;;;;;;;;;;6229673;23;20393;-43
2021/12/23 03:52:43;;;;;;;41.47;22.38;;;;;;;;;;6204326;23;20020;-42
2021/12/23 03:55:08;;;;;;;42.00;22.52;;;;;;;;;;6206313;23;20024;-45
2021/12/23 03:57:33;;;;;;;43.63;23.10;;;;;;;;;;6206020;23;20445;-43
2021/12/23 03:59:59;;;;;;;42.90;23.48;;;;;;;;;;6206239;23;20082;-43
2021/12/23 04:02:24;;;;;;;44.20;24.35;;;;;;;;;;6205889;23;20070;-44
2021/12/23 04:04:49;;;;;;;53.28;27.08;;;;;;;;;;6205961;23;20013;-43
2021/12/23 04:07:16;;;;;;;44.67;24.05;;;;;;;;;;6206416;23;20009;-43
2021/12/23 04:09:41;;;;;;;61.08;26.98;;;;;;;;;;6206581;23;20084;-42
2021/12/23 04:12:07;;;;;;;56.67;26.92;;;;;;;;;;6205590;23;20032;-43
2021/12/23 04:14:32;;;;;;;57.88;28.25;;;;;;;;;;6206191;23;20094;-43
2021/12/23 04:16:57;;;;;;;56.33;26.75;;;;;;;;;;6205932;23;20020;-44
2021/12/23 04:19:27;;;;;;;62.45;27.70;;;;;;;;;;6205772;23;20016;-42
2021/12/23 04:21:53;;;;;;;63.35;26.13;;;;;;;;;;6206701;23;20012;-43
2021/12/23 04:24:18;;;;;;;56.63;27.70;;;;;;;;;;6205260;23;20012;-43
2021/12/23 04:26:43;;;;;;;59.20;28.15;;;;;;;;;;6206776;23;20043;-43
2021/12/23 04:29:08;;;;;;;60.00;30.70;;;;;;;;;;6205556;23;20353;-42
2021/12/23 04:31:34;;;;;;;61.95;31.13;;;;;;;;;;6206072;23;20333;-43
2021/12/23 04:33:59;;;;;;;59.85;29.67;;;;;;;;;;6205603;23;20437;-44
2021/12/23 04:36:29;;;;;;;58.97;30.83;;;;;;;;;;6205944;23;20044;-42
2021/12/23 04:38:54;;;;;;;56.95;30.65;;;;;;;;;;6206086;23;20028;-46
2021/12/23 04:41:20;;;;;;;71.95;30.45;;;;;;;;;;6205674;23;20016;-42
2021/12/23 04:43:45;;;;;;;67.68;30.30;;;;;;;;;;6205891;23;20008;-43
2021/12/23 04:46:11;;;;;;;71.60;32.05;;;;;;;;;;6206255;23;20376;-44
2021/12/23 04:48:36;;;;;;;63.53;30.15;;;;;;;;;;6205299;23;20322;-45
2021/12/23 04:51:02;;;;;;;72.53;33.60;;;;;;;;;;6205935;23;20070;-43
2021/12/23 04:53:27;;;;;;;72.03;31.60;;;;;;;;;;6205223;23;20008;-44
2021/12/23 04:55:52;;;;;;;65.57;30.80;;;;;;;;;;6206393;23;20095;-44
2021/12/23 04:58:18;;;;;;;67.00;31.20;;;;;;;;;;6203740;23;20016;-42
2021/12/23 05:00:47;;;;;;;67.38;29.83;;;;;;;;;;6206405;23;20449;-43
2021/12/23 05:03:13;;;;;;;67.40;30.70;;;;;;;;;;6205110;23;20095;-42
2021/12/23 05:05:38;;;;;;;70.20;29.70;;;;;;;;;;6206432;23;20091;-44
2021/12/23 05:08:03;;;;;;;60.45;28.55;;;;;;;;;;6206024;23;20079;-44
2021/12/23 05:10:29;;;;;;;63.88;28.63;;;;;;;;;;6230812;23;20009;-44
2021/12/23 05:12:54;;;;;;;69.82;29.85;;;;;;;;;;6207385;23;20008;-45
2021/12/23 05:15:20;;;;;;;63.60;29.35;;;;;;;;;;6207642;23;20027;-43
2021/12/23 05:17:46;;;;;;;74.88;30.88;;;;;;;;;;6207523;23;20009;-42
2021/12/23 05:20:12;;;;;;;66.63;29.48;;;;;;;;;;6208265;23;20013;-43
2021/12/23 05:22:37;;;;;;;59.00;28.42;;;;;;;;;;6207242;23;20008;-42
2021/12/23 05:25:04;;;;;;;70.88;32.70;;;;;;;;;;6208239;23;20022;-43
2021/12/23 05:27:29;;;;;;;69.22;32.50;;;;;;;;;;6207170;23;20127;-43
2021/12/23 05:29:54;;;;;;;69.53;30.45;;;;;;;;;;6208070;23;20059;-43
2021/12/23 05:32:20;;;;;;;67.57;29.25;;;;;;;;;;6207162;23;20067;-43
2021/12/23 05:34:45;;;;;;;62.05;30.90;;;;;;;;;;6208293;23;20524;-43
2021/12/23 05:37:10;;;;;;;67.18;31.77;;;;;;;;;;6207611;23;20087;-43
2021/12/23 05:39:35;;;;;;;68.57;30.65;;;;;;;;;;6207117;23;20129;-43
2021/12/23 05:42:01;;;;;;;75.25;35.58;;;;;;;;;;6207634;23;20001;-43
2021/12/23 05:44:26;;;;;;;82.03;35.15;;;;;;;;;;6206972;23;20078;-43
2021/12/23 05:46:52;;;;;;;70.88;34.67;;;;;;;;;;6208035;23;20016;-43
2021/12/23 05:49:17;;;;;;;80.22;34.53;;;;;;;;;;6206455;23;20021;-42
2021/12/23 05:51:42;;;;;;;73.63;34.90;;;;;;;;;;6207460;23;20020;-46
2021/12/23 05:54:08;;;;;;;79.10;34.00;;;;;;;;;;6231553;23;20024;-44
2021/12/23 05:56:33;;;;;;;91.97;36.35;;;;;;;;;;6206836;23;20139;-45
2021/12/23 05:58:58;;;;;;;82.38;35.25;;;;;;;;;;6207670;23;20021;-43
2021/12/23 06:01:24;;;;;;;79.90;37.15;;;;;;;;;;6207129;23;20036;-44
2021/12/23 06:03:49;;;;;;;82.38;34.55;;;;;;;;;;6208101;23;20036;-43
2021/12/23 06:06:15;;;;;;;89.35;37.75;;;;;;;;;;6206536;23;20008;-43
2021/12/23 06:08:40;;;;;;;81.35;35.17;;;;;;;;;;6207853;23;20012;-43
2021/12/23 06:11:06;;;;;;;86.20;36.78;;;;;;;;;;6206741;23;20008;-44
2021/12/23 06:13:31;;;;;;;83.40;35.05;;;;;;;;;;6230040;23;20023;-43
2021/12/23 06:15:56;;;;;;;86.75;36.17;;;;;;;;;;6206776;23;20028;-44
2021/12/23 06:18:22;;;;;;;84.13;35.03;;;;;;;;;;6207085;23;20015;-45
2021/12/23 06:20:47;;;;;;;99.10;38.33;;;;;;;;;;6206951;23;20009;-45
2021/12/23 06:23:12;;;;;;;79.95;37.05;;;;;;;;;;6206571;23;20009;-42
2021/12/23 06:25:38;;;;;;;93.43;39.55;;;;;;;;;;6207059;23;20022;-44
2021/12/23 06:28:03;;;;;;;88.38;37.65;;;;;;;;;;6206961;23;20008;-43
2021/12/23 06:30:29;;;;;;;85.18;38.65;;;;;;;;;;6206837;23;20071;-45
2021/12/23 06:32:55;;;;;;;89.05;37.78;;;;;;;;;;6207327;23;20032;-44
2021/12/23 06:35:23;;;;;;;90.40;36.38;;;;;;;;;;6206608;23;20349;-45
2021/12/23 06:37:48;;;;;;;79.88;38.88;;;;;;;;;;6205313;23;20009;-43
2021/12/23 06:40:14;;;;;;;86.88;38.20;;;;;;;;;;6206422;23;20372;-43
2021/12/23 06:42:39;;;;;;;87.93;37.85;;;;;;;;;;6207215;23;20012;-43
2021/12/23 06:45:06;;;;;;;92.00;35.33;;;;;;;;;;6206508;23;20083;-44
2021/12/23 06:47:31;;;;;;;90.32;37.65;;;;;;;;;;6206931;23;20040;-43
2021/12/23 06:49:56;;;;;;;80.25;36.47;;;;;;;;;;6206543;23;20016;-44
2021/12/23 06:52:22;;;;;;;83.43;35.50;;;;;;;;;;6206882;23;20025;-44
2021/12/23 06:54:52;;;;;;;80.40;35.08;;;;;;;;;;6206760;23;20794;-44
2021/12/23 06:57:17;;;;;;;94.35;36.78;;;;;;;;;;6207448;23;20013;-44
2021/12/23 06:59:43;;;;;;;85.35;36.58;;;;;;;;;;6206986;23;20012;-43
2021/12/23 07:02:08;;;;;;;93.30;36.63;;;;;;;;;;6207482;23;20021;-43
2021/12/23 07:04:35;;;;;;;79.30;32.08;;;;;;;;;;6205544;23;20092;-43
2021/12/23 07:07:24;;;;;;;79.88;35.33;;;;;;;;;;6207346;23;20544;-44
2021/12/23 07:09:49;;;;;;;83.85;34.95;;;;;;;;;;6206573;23;20008;-45
2021/12/23 07:12:15;;;;;;;83.40;33.83;;;;;;;;;;6206944;23;20294;-47
2021/12/23 07:14:41;;;;;;;80.13;32.92;;;;;;;;;;6205736;23;20502;-46
2021/12/23 07:17:07;;;;;;;75.43;34.08;;;;;;;;;;6207362;23;20172;-45
2021/12/23 07:19:33;;;;;;;79.05;32.90;;;;;;;;;;6205650;23;20015;-45
2021/12/23 07:21:58;;;;;;;82.47;32.88;;;;;;;;;;6207251;23;20039;-45
2021/12/23 07:24:23;;;;;;;76.45;32.80;;;;;;;;;;6205615;23;20028;-44
2021/12/23 07:26:49;;;;;;;68.32;33.10;;;;;;;;;;6207371;23;20326;-46
2021/12/23 07:29:14;;;;;;;67.53;33.10;;;;;;;;;;6205865;23;20027;-48
2021/12/23 07:31:40;;;;;;;86.80;34.88;;;;;;;;;;6206693;23;20039;-45
2021/12/23 07:34:05;;;;;;;66.45;31.40;;;;;;;;;;6206070;23;20349;-47
2021/12/23 07:36:30;;;;;;;82.57;34.47;;;;;;;;;;6206232;23;20429;-45
2021/12/23 07:38:56;;;;;;;75.38;33.03;;;;;;;;;;6206605;23;20476;-44
2021/12/23 07:41:22;;;;;;;86.22;32.30;;;;;;;;;;6205859;23;20019;-44
2021/12/23 07:44:00;;;;;;;78.07;33.58;;;;;;;;;;6206409;23;20442;-46
2021/12/23 07:46:29;;;;;;;85.80;35.25;;;;;;;;;;6206402;23;20024;-44
2021/12/23 07:48:55;;;;;;;74.00;32.88;;;;;;;;;;6206076;23;20008;-44
2021/12/23 07:51:20;;;;;;;81.93;36.05;;;;;;;;;;6205956;23;20314;-43
2021/12/23 07:53:46;;;;;;;75.35;33.63;;;;;;;;;;6205914;23;20012;-44
2021/12/23 07:56:11;;;;;;;82.75;34.80;;;;;;;;;;6206794;23;20005;-43
2021/12/23 07:58:37;;;;;;;80.47;32.92;;;;;;;;;;6205407;23;20060;-44
2021/12/23 08:01:02;;;;;;;74.68;32.53;;;;;;;;;;6206512;23;20577;-45
2021/12/23 08:03:27;;;;;;;78.72;32.40;;;;;;;;;;6203623;23;20341;-43
2021/12/23 08:05:52;;;;;;;75.72;31.98;;;;;;;;;;6205693;23;20036;-45
2021/12/23 08:08:18;;;;;;;77.22;32.20;;;;;;;;;;6206390;23;20017;-45
2021/12/23 08:10:43;;;;;;;69.65;32.50;;;;;;;;;;6206336;23;20019;-44
2021/12/23 08:13:08;;;;;;;74.75;33.35;;;;;;;;;;6206583;23;20020;-44
2021/12/23 08:15:34;;;;;;;76.82;33.85;;;;;;;;;;6204792;23;20075;-44
2021/12/23 08:17:59;;;;;;;73.32;35.28;;;;;;;;;;6206528;23;20079;-45
2021/12/23 08:20:24;;;;;;;86.40;34.47;;;;;;;;;;6205824;23;20040;-44
2021/12/23 08:22:50;;;;;;;80.00;35.20;;;;;;;;;;6206339;23;20015;-43
2021/12/23 08:25:15;;;;;;;85.13;37.80;;;;;;;;;;6205749;23;20079;-43
2021/12/23 08:27:41;;;;;;;84.70;34.90;;;;;;;;;;6206537;23;20028;-43
2021/12/23 08:30:08;;;;;;;99.95;39.58;;;;;;;;;;6206204;23;20013;-43
2021/12/23 08:32:33;;;;;;;88.70;36.38;;;;;;;;;;6205491;23;20013;-43
2021/12/23 08:34:59;;;;;;;81.00;34.10;;;;;;;;;;6206348;23;20142;-43
2021/12/23 08:37:24;;;;;;;82.00;35.88;;;;;;;;;;6205624;23;20019;-42
2021/12/23 08:39:51;;;;;;;80.88;33.47;;;;;;;;;;6206543;23;20134;-43
2021/12/23 08:42:16;;;;;;;81.43;35.45;;;;;;;;;;6205441;23;20008;-43
2021/12/23 08:44:41;;;;;;;73.78;34.00;;;;;;;;;;6207591;23;20024;-44
2021/12/23 08:47:07;;;;;;;74.65;33.50;;;;;;;;;;6208657;23;20024;-44
2021/12/23 08:49:33;;;;;;;59.88;30.55;;;;;;;;;;6207867;23;20499;-44
2021/12/23 08:51:58;;;;;;;76.00;29.92;;;;;;;;;;6208145;23;20033;-43
2021/12/23 08:54:23;;;;;;;66.93;29.92;;;;;;;;;;6206184;23;20112;-43
2021/12/23 08:56:49;;;;;;;69.05;30.00;;;;;;;;;;6208085;23;20044;-43
2021/12/23 08:59:14;;;;;;;76.93;31.75;;;;;;;;;;6205606;23;20020;-45
2021/12/23 09:01:40;;;;;;;72.68;31.00;;;;;;;;;;6207789;23;20016;-44
2021/12/23 09:04:06;;;;;;;73.60;31.33;;;;;;;;;;6208624;23;20016;-44
2021/12/23 09:06:31;;;;;;;74.22;31.02;;;;;;;;;;6206795;23;20050;-44
2021/12/23 09:08:57;;;;;;;62.65;29.20;;;;;;;;;;6208496;23;20344;-44
2021/12/23 09:11:23;;;;;;;65.03;29.73;;;;;;;;;;6206965;23;20438;-45
2021/12/23 09:13:48;;;;;;;63.25;30.30;;;;;;;;;;6208638;23;20019;-43
2021/12/23 09:16:14;;;;;;;69.10;31.15;;;;;;;;;;6206360;23;20368;-44
2021/12/23 09:18:39;;;;;;;62.53;31.42;;;;;;;;;;6208471;23;20009;-44
2021/12/23 09:21:04;;;;;;;69.50;29.40;;;;;;;;;;6207457;23;20012;-44
2021/12/23 09:23:30;;;;;;;66.75;29.83;;;;;;;;;;6207838;23;20032;-44
2021/12/23 09:25:55;;;;;;;69.28;30.55;;;;;;;;;;6207591;23;20017;-43
2021/12/23 09:33:32;;;;;;;69.07;28.98;;;;;;;;;;6207518;23;20023;-43
2021/12/23 09:35:57;;;;;;;77.93;32.20;;;;;;;;;;6206985;23;20387;-45
2021/12/23 09:38:29;;;;;;;63.28;28.58;;;;;;;;;;6205685;23;20043;-44
2021/12/23 09:40:57;;;;;;;61.05;30.80;;;;;;;;;;6206690;23;20023;-45
2021/12/23 09:43:24;;;;;;;71.78;31.25;;;;;;;;;;6206926;23;20092;-43
2021/12/23 09:45:50;;;;;;;62.15;27.77;;;;;;;;;;6206809;23;20008;-44
2021/12/23 09:48:19;;;;;;;61.25;26.15;;;;;;;;;;6206754;23;20024;-44
2021/12/23 09:50:44;;;;;;;54.28;27.27;;;;;;;;;;6200755;23;20020;-43
2021/12/23 09:53:10;;;;;;;60.08;27.67;;;;;;;;;;6204339;23;20012;-44
2021/12/23 09:55:36;;;;;;;56.45;23.40;;;;;;;;;;6205206;23;20446;-46
2021/12/23 09:58:02;;;;;;;56.50;24.35;;;;;;;;;;6205328;23;20004;-43
2021/12/23 10:00:29;;;;;;;53.95;25.73;;;;;;;;;;6205283;23;20031;-44
2021/12/23 10:02:55;;;;;;;50.75;24.17;;;;;;;;;;6207305;23;20343;-44
2021/12/23 10:05:21;;;;;;;49.88;24.38;;;;;;;;;;6207329;23;20021;-43
2021/12/23 10:07:48;;;;;;;58.28;26.15;;;;;;;;;;6206723;23;20092;-43
2021/12/23 10:10:19;;;;;;;52.95;24.90;;;;;;;;;;6205783;23;20020;-43
2021/12/23 10:38:45;;;;;;;46.97;22.08;;;;;;;;;;6206846;23;20012;-46
2021/12/23 10:41:11;;;;;;;50.40;23.48;;;;;;;;;;6230021;23;20017;-43
2021/12/23 10:43:52;;;;;;;46.25;22.80;;;;;;;;;;6205144;23;20131;-43
2021/12/23 10:46:23;;;;;;;37.42;19.40;;;;;;;;;;6205434;23;20039;-44
2021/12/23 10:52:08;;;;;;;37.70;19.05;;;;;;;;;;6202545;23;20070;-44
2021/12/23 11:00:28;;;;;;;36.65;17.80;;;;;;;;;;6204352;23;20068;-43
2021/12/23 11:03:16;;;;;;;33.22;16.80;;;;;;;;;;6226693;23;20015;-44
2021/12/23 11:05:49;;;;;;;35.70;17.25;;;;;;;;;;6204151;23;20116;-45
2021/12/23 11:38:27;;;;;;;15.82;9.23;;;;;;;;;;6206824;23;20126;-43
2021/12/23 11:40:56;;;;;;;18.05;10.85;;;;;;;;;;6205753;23;20005;-43
2021/12/23 11:43:45;;;;;;;15.90;9.75;;;;;;;;;;6207226;23;20023;-43
2021/12/23 11:46:11;;;;;;;;;;;;;;;;;;6206533;23;20060;-44
2021/12/23 11:48:41;;;;;;;16.60;9.05;;;;;;;;;;6205718;23;19912;-43
2021/12/23 11:51:08;;;;;;;17.65;9.35;;;;;;;;;;6205838;23;20043;-45
2021/12/23 11:53:35;;;;;;;15.23;8.75;;;;;;;;;;6203760;23;20016;-45
2021/12/23 11:56:03;;;;;;;12.02;8.50;;;;;;;;;;6202944;23;20453;-43
2021/12/23 11:58:28;;;;;;;13.75;8.43;;;;;;;;;;6203466;23;20029;-46
2021/12/23 12:01:07;;;;;;;12.63;7.55;;;;;;;;;;6204823;23;20044;-44
2021/12/23 12:03:51;;;;;;;10.55;6.97;;;;;;;;;;6204885;23;20004;-43
2021/12/23 12:06:18;;;;;;;9.18;6.65;;;;;;;;;;6203376;23;20090;-43
2021/12/23 12:08:44;;;;;;;9.40;7.22;;;;;;;;;;6205589;23;20051;-43
2021/12/23 12:11:20;;;;;;;12.73;7.65;;;;;;;;;;6206523;23;20013;-44
2021/12/23 12:13:46;;;;;;;8.48;6.10;;;;;;;;;;6206626;23;20092;-45
2021/12/23 12:16:28;;;;;;;8.32;5.95;;;;;;;;;;6204823;23;20048;-42
2021/12/23 12:18:53;;;;;;;6.80;5.85;;;;;;;;;;6206687;23;20015;-48
2021/12/23 12:21:23;;;;;;;10.38;5.93;;;;;;;;;;6205813;23;20016;-43
2021/12/23 12:24:04;;;;;;;9.38;5.72;;;;;;;;;;6207401;23;20016;-43
2021/12/23 12:26:31;;;;;;;9.35;5.57;;;;;;;;;;6206514;23;20027;-44
2021/12/23 12:28:56;;;;;;;8.05;6.13;;;;;;;;;;6206403;23;20008;-45
2021/12/23 12:31:23;;;;;;;11.60;6.25;;;;;;;;;;6206076;23;20012;-45
2021/12/23 12:34:02;;;;;;;7.50;5.63;;;;;;;;;;6206451;23;20341;-43
2021/12/23 12:36:27;;;;;;;;;;;;;;;;;;6206569;23;20053;-44
2021/12/23 12:39:14;;;;;;;7.50;5.60;;;;;;;;;;6206590;23;19908;-44
2021/12/23 12:41:40;;;;;;;9.15;6.10;;;;;;;;;;6205846;23;20284;-46
2021/12/23 12:44:16;;;;;;;10.05;5.97;;;;;;;;;;6206287;23;20388;-46
2021/12/23 12:47:02;;;;;;;5.68;4.65;;;;;;;;;;6205614;23;20013;-44
2021/12/23 12:49:30;;;;;;;5.90;4.95;;;;;;;;;;6206386;23;20500;-45
2021/12/23 12:52:07;;;;;;;6.47;5.20;;;;;;;;;;6206075;23;20024;-46
2021/12/23 12:54:33;;;;;;;7.07;6.07;;;;;;;;;;6206412;23;20445;-47
2021/12/23 12:57:02;;;;;;;6.35;5.10;;;;;;;;;;6206649;23;20037;-44
2021/12/23 12:59:29;;;;;;;7.55;5.25;;;;;;;;;;6206050;23;20073;-44
2021/12/23 13:01:55;;;;;;;6.28;5.15;;;;;;;;;;6206838;23;20019;-47
2021/12/23 13:04:35;;;;;;;7.30;5.40;;;;;;;;;;6203840;23;20012;-44
2021/12/23 13:07:20;;;;;;;5.68;4.68;;;;;;;;;;6206954;23;20017;-45
2021/12/23 13:09:51;;;;;;;5.95;4.70;;;;;;;;;;6206262;23;20012;-44
2021/12/23 13:12:39;;;;;;;7.00;5.13;;;;;;;;;;6205843;23;20045;-44
2021/12/23 13:15:19;;;;;;;6.05;5.20;;;;;;;;;;6194515;23;20099;-47
2021/12/23 13:18:04;;;;;;;6.78;5.43;;;;;;;;;;6205013;23;20327;-47
2021/12/23 13:20:32;;;;;;;6.90;5.20;;;;;;;;;;6205850;23;20017;-45
2021/12/23 13:23:06;;;;;;;8.88;5.75;;;;;;;;;;6206291;23;20051;-43
2021/12/23 13:25:32;;;;;;;8.73;5.60;;;;;;;;;;6205519;23;20922;-44
2021/12/23 13:27:59;;;;;;;6.30;5.05;;;;;;;;;;6205996;23;20009;-45
2021/12/23 13:30:25;;;;;;;7.82;5.40;;;;;;;;;;6206181;23;20375;-45
2021/12/23 13:32:57;;;;;;;13.70;6.20;;;;;;;;;;6205909;23;20392;-47
2021/12/23 13:35:23;;;;;;;7.25;5.18;;;;;;;;;;6207026;23;20047;-43
2021/12/23 13:37:48;;;;;;;8.10;5.50;;;;;;;;;;6208502;23;20016;-44
2021/12/23 13:40:30;;;;;;;5.78;5.07;;;;;;;;;;6205952;23;20004;-44
2021/12/23 13:42:55;;;;;;;7.45;5.03;;;;;;;;;;6208473;23;20013;-46
2021/12/23 13:45:20;;;;;;;6.78;4.50;;;;;;;;;;6207498;23;20552;-44
2021/12/23 13:47:50;;;;;;;8.10;4.28;;;;;;;;;;6206565;23;20008;-45
2021/12/23 13:50:17;;;;;;;10.15;5.18;;;;;;;;;;6205806;23;20009;-44
2021/12/23 13:52:46;;;;;;;7.18;5.00;;;;;;;;;;6206390;23;20483;-46
2021/12/23 13:55:13;;;;;;;6.28;5.65;;;;;;;;;;6208122;23;20035;-45
2021/12/23 13:57:41;;;;;;;6.68;4.60;;;;;;;;;;6207664;23;20012;-47
2021/12/23 14:00:13;;;;;;;5.68;4.68;;;;;;;;;;6206032;23;20023;-45
2021/12/23 14:02:38;;;;;;;5.38;4.00;;;;;;;;;;6207482;23;20005;-43
2021/12/23 14:05:05;;;;;;;4.82;4.00;;;;;;;;;;6207157;23;20013;-43
2021/12/23 14:07:32;;;;;;;5.45;4.22;;;;;;;;;;6207575;23;20021;-44
2021/12/23 14:09:58;;;;;;;4.22;3.80;;;;;;;;;;6207915;23;20032;-43
2021/12/23 14:12:42;;;;;;;5.70;3.80;;;;;;;;;;6207756;23;20024;-44
2021/12/23 14:15:08;;;;;;;5.03;4.43;;;;;;;;;;6207703;23;20364;-44
2021/12/23 14:17:36;;;;;;;6.38;4.03;;;;;;;;;;6207218;23;20440;-44
2021/12/23 14:25:33;;;;;;;7.25;3.58;;;;;;;;;;6207294;23;20042;-46
2021/12/23 14:27:58;;;;;;;6.68;3.70;;;;;;;;;;6207560;23;20352;-44
2021/12/23 14:30:34;;;;;;;8.45;4.25;;;;;;;;;;6207788;23;20432;-43
2021/12/23 14:33:06;;;;;;;5.30;4.07;;;;;;;;;;6208336;23;20004;-43
2021/12/23 14:35:31;;;;;;;5.45;4.07;;;;;;;;;;6207242;23;20016;-44
2021/12/23 14:38:00;;;;;;;6.97;4.63;;;;;;;;;;6207501;23;20080;-45
2021/12/23 14:40:25;;;;;;;8.90;4.95;;;;;;;;;;6206992;23;20012;-45
2021/12/23 14:43:03;;;;;;;7.00;5.07;;;;;;;;;;6208653;23;20014;-43
2021/12/23 14:45:28;;;;;;;8.18;5.15;;;;;;;;;;6207202;23;20016;-45
2021/12/23 14:48:07;;;;;;;9.35;5.38;;;;;;;;;;6208145;23;20071;-43
2021/12/23 14:50:37;;;;;;;8.20;5.30;;;;;;;;;;6230625;23;20012;-44
2021/12/23 14:53:15;;;;;;;8.65;6.10;;;;;;;;;;6207665;23;20021;-47
2021/12/23 14:55:41;;;;;;;7.13;5.88;;;;;;;;;;6207569;23;20013;-43
2021/12/23 14:58:06;;;;;;;12.02;6.05;;;;;;;;;;6207242;23;20094;-44
2021/12/23 15:00:31;;;;;;;11.88;7.50;;;;;;;;;;6207574;23;20032;-45
2021/12/23 15:03:03;;;;;;;10.60;6.83;;;;;;;;;;6207191;23;20009;-43
2021/12/23 15:05:29;;;;;;;8.25;5.80;;;;;;;;;;6207603;23;20234;-44
2021/12/23 15:07:55;;;;;;;12.73;6.85;;;;;;;;;;6207008;23;20472;-45
2021/12/23 15:10:39;;;;;;;8.95;6.40;;;;;;;;;;6207432;23;20016;-43
2021/12/23 15:13:13;;;;;;;12.23;6.97;;;;;;;;;;6207087;23;20001;-44
2021/12/23 15:15:38;;;;;;;18.52;8.02;;;;;;;;;;6206516;23;20590;-43
2021/12/23 15:18:15;;;;;;;10.63;7.70;;;;;;;;;;6206420;23;20040;-43
2021/12/23 15:20:47;;;;;;;17.23;7.93;;;;;;;;;;6207400;23;20012;-43
2021/12/23 15:23:13;;;;;;;11.65;8.73;;;;;;;;;;6207376;23;20058;-46
2021/12/23 15:25:39;;;;;;;12.48;8.45;;;;;;;;;;6207529;23;20012;-45
2021/12/23 15:28:06;;;;;;;13.75;8.85;;;;;;;;;;6207602;23;20012;-44
2021/12/23 15:30:33;;;;;;;12.23;7.68;;;;;;;;;;6206780;23;20051;-46
2021/12/23 15:32:58;;;;;;;11.10;8.32;;;;;;;;;;6207720;23;20015;-44
2021/12/23 15:35:29;;;;;;;13.13;9.93;;;;;;;;;;6206374;23;20020;-45
2021/12/23 15:37:54;;;;;;;13.43;8.88;;;;;;;;;;6207648;23;20016;-44
2021/12/23 15:40:21;;;;;;;11.63;8.75;;;;;;;;;;6206536;23;20016;-46
2021/12/23 15:42:48;;;;;;;13.10;8.27;;;;;;;;;;6208066;23;20076;-44
2021/12/23 15:45:13;;;;;;;16.40;8.73;;;;;;;;;;6206698;23;20547;-43
2021/12/23 15:47:38;;;;;;;16.02;9.30;;;;;;;;;;6207646;23;19997;-46
2021/12/23 15:50:05;;;;;;;13.77;8.80;;;;;;;;;;6207179;23;20008;-43
2021/12/23 15:52:30;;;;;;;15.77;9.40;;;;;;;;;;6205831;23;20473;-44